createdAt,value
2023-01-28T00:01:07.008Z,2.17
2023-01-28T00:06:05.457Z,2.07
2023-01-28T00:11:05.505Z,1.85
2023-01-28T00:16:04.976Z,2.07
2023-01-28T00:21:03.684Z,2.11
2023-01-28T00:26:02.062Z,1.88
2023-01-28T00:31:07.028Z,2.05
2023-01-28T00:36:06.677Z,2.04
2023-01-28T00:41:10.735Z,2.10
2023-01-28T00:46:10.702Z,1.98
2023-01-28T00:51:09.223Z,2.03
2023-01-28T00:56:07.864Z,2.04
2023-01-28T01:01:11.232Z,2.14
2023-01-28T01:06:09.664Z,2.28
2023-01-28T01:11:08.011Z,2.21
2023-01-28T01:16:06.811Z,2.24
2023-01-28T01:21:08.573Z,2.18
2023-01-28T01:26:07.230Z,1.84
2023-01-28T01:31:06.890Z,2.01
2023-01-28T01:36:06.598Z,2.04
2023-01-28T01:41:05.916Z,1.82
2023-01-28T01:46:03.852Z,1.86
2023-01-28T01:51:04.086Z,1.56
2023-01-28T01:56:05.585Z,2.01
2023-01-28T02:01:03.769Z,1.86
2023-01-28T02:06:01.710Z,1.83
2023-01-28T02:11:01.791Z,1.66
2023-01-28T02:16:02.126Z,1.96
2023-01-28T02:21:12.413Z,1.94
2023-01-28T02:26:27.330Z,1.65
2023-01-28T02:31:29.009Z,1.48
2023-01-28T02:36:31.660Z,1.36
2023-01-28T02:41:33.567Z,1.61
2023-01-28T02:46:54.204Z,1.72
2023-01-28T02:51:57.223Z,1.83
2023-01-28T02:56:58.046Z,1.89
2023-01-28T03:02:01.681Z,1.90
2023-01-28T03:07:04.293Z,2.06
2023-01-28T03:12:22.009Z,2.06
2023-01-28T03:17:41.945Z,2.06
2023-01-28T03:22:58.415Z,2.13
2023-01-28T03:28:17.301Z,2.19
2023-01-28T03:33:34.668Z,2.15
2023-01-28T03:38:34.193Z,2.17
2023-01-28T03:43:32.420Z,2.11
2023-01-28T03:48:31.771Z,1.95
2023-01-28T03:53:32.195Z,2.14
2023-01-28T03:58:46.150Z,2.06
2023-01-28T04:03:46.573Z,2.12
2023-01-28T04:08:54.662Z,2.13
2023-01-28T04:14:02.857Z,2.07
2023-01-28T04:19:16.202Z,1.99
2023-01-28T04:24:15.844Z,1.95
2023-01-28T04:29:13.797Z,2.21
2023-01-28T04:34:11.666Z,2.09
2023-01-28T04:39:18.833Z,2.15
2023-01-28T04:44:36.556Z,1.94
2023-01-28T04:50:05.430Z,2.01
2023-01-28T04:55:16.773Z,2.03
2023-01-28T05:00:17.133Z,1.89
2023-01-28T05:05:15.526Z,1.90
2023-01-28T05:10:29.485Z,1.80
2023-01-28T05:15:27.328Z,1.87
2023-01-28T05:20:25.712Z,1.94
2023-01-28T05:25:27.736Z,1.84
2023-01-28T05:30:27.178Z,1.72
2023-01-28T05:35:25.263Z,2.04
2023-01-28T05:40:23.312Z,2.08
2023-01-28T05:45:22.374Z,1.98
2023-01-28T05:50:56.980Z,2.01
2023-01-28T05:56:20.949Z,2.19
2023-01-28T06:01:20.608Z,2.27
2023-01-28T06:06:25.239Z,2.29
2023-01-28T06:11:23.232Z,2.35
2023-01-28T06:16:24.503Z,2.50
2023-01-28T06:21:44.395Z,2.46
2023-01-28T06:26:44.472Z,2.42
2023-01-28T06:31:42.940Z,2.41
2023-01-28T06:36:40.768Z,2.59
2023-01-28T06:41:39.893Z,2.64
2023-01-28T06:46:37.745Z,2.82
2023-01-28T06:51:35.553Z,2.79
2023-01-28T06:56:33.374Z,2.79
2023-01-28T07:01:32.793Z,2.92
2023-01-28T07:06:30.715Z,2.96
2023-01-28T07:11:28.516Z,3.00
2023-01-28T07:16:26.365Z,2.95
2023-01-28T07:21:25.559Z,3.07
2023-01-28T07:26:23.724Z,3.17
2023-01-28T07:31:21.615Z,3.15
2023-01-28T07:36:19.510Z,3.06
2023-01-28T07:41:18.848Z,3.06
2023-01-28T07:46:16.697Z,3.10
2023-01-28T07:51:14.785Z,3.08
2023-01-28T07:56:12.652Z,3.06
2023-01-28T08:01:11.898Z,3.07
2023-01-28T08:06:11.652Z,3.13
2023-01-28T08:11:10.902Z,3.18
2023-01-28T08:16:09.064Z,3.17
2023-01-28T08:21:08.466Z,3.13
2023-01-28T08:26:06.343Z,3.12
2023-01-28T08:31:04.495Z,3.20
2023-01-28T08:36:03.863Z,3.17
2023-01-28T08:41:03.129Z,3.21
2023-01-28T08:46:01.039Z,3.14
2023-01-28T08:51:00.159Z,3.15
2023-01-28T08:55:58.008Z,3.02
2023-01-28T09:00:57.298Z,3.13
2023-01-28T09:05:55.176Z,2.91
2023-01-28T09:10:55.911Z,2.92
2023-01-28T09:15:54.083Z,2.75
2023-01-28T09:20:53.385Z,2.75
2023-01-28T09:25:51.217Z,2.71
2023-01-28T09:30:49.123Z,2.70
2023-01-28T09:35:47.093Z,2.79
2023-01-28T09:40:46.515Z,2.83
2023-01-28T09:45:46.858Z,2.76
2023-01-28T09:50:46.897Z,3.00
2023-01-28T09:55:48.162Z,2.94
2023-01-28T10:00:51.513Z,2.83
2023-01-28T10:05:54.999Z,2.87
2023-01-28T10:10:57.173Z,2.85
2023-01-28T10:16:00.173Z,3.00
2023-01-28T10:21:03.379Z,2.71
2023-01-28T10:26:05.867Z,2.89
2023-01-28T10:31:03.925Z,2.71
2023-01-28T10:36:01.810Z,2.87
2023-01-28T10:41:01.745Z,2.76
2023-01-28T10:46:04.297Z,2.77
2023-01-28T10:51:05.226Z,2.71
2023-01-28T10:56:03.877Z,2.73
2023-01-28T11:01:04.689Z,2.83
2023-01-28T11:06:03.395Z,2.87
2023-01-28T11:11:01.432Z,3.03
2023-01-28T11:16:01.520Z,2.95
2023-01-28T11:21:01.995Z,3.07
2023-01-28T11:26:01.802Z,3.22
2023-01-28T11:31:01.257Z,3.09
2023-01-28T11:36:06.891Z,3.04
2023-01-28T11:41:04.875Z,3.01
2023-01-28T11:46:10.596Z,3.19
2023-01-28T11:51:15.765Z,2.87
2023-01-28T11:56:18.945Z,2.79
2023-01-28T12:01:23.277Z,2.72
2023-01-28T12:06:35.652Z,2.76
2023-01-28T12:11:50.902Z,2.62
2023-01-28T12:16:56.360Z,2.57
2023-01-28T12:22:11.481Z,2.79
2023-01-28T12:27:16.277Z,2.85
2023-01-28T12:32:20.124Z,2.92
2023-01-28T12:37:23.329Z,2.84
2023-01-28T12:42:25.834Z,2.72
2023-01-28T12:47:27.711Z,2.87
2023-01-28T12:52:30.843Z,2.84
2023-01-28T12:57:29.659Z,2.86
2023-01-28T13:02:33.667Z,2.68
2023-01-28T13:07:36.516Z,2.94
2023-01-28T13:12:34.900Z,3.09
2023-01-28T13:17:33.717Z,3.18
2023-01-28T13:22:35.334Z,2.88
2023-01-28T13:27:33.230Z,2.88
2023-01-28T13:32:35.527Z,2.87
2023-01-28T13:37:36.206Z,2.90
2023-01-28T13:42:34.274Z,3.16
2023-01-28T13:47:37.975Z,3.08
2023-01-28T13:52:43.881Z,2.79
2023-01-28T13:57:53.525Z,2.98
2023-01-28T14:03:08.668Z,2.68
2023-01-28T14:08:32.141Z,2.75
2023-01-28T14:13:47.700Z,2.96
2023-01-28T14:18:46.857Z,2.89
2023-01-28T14:23:50.811Z,2.92
2023-01-28T14:28:55.143Z,2.84
2023-01-28T14:33:53.236Z,2.96
2023-01-28T14:38:52.590Z,2.98
2023-01-28T14:43:50.741Z,2.84
2023-01-28T14:48:52.332Z,2.90
2023-01-28T14:54:10.864Z,2.78
2023-01-28T14:59:19.829Z,2.73
2023-01-28T15:04:27.527Z,2.82
2023-01-28T15:09:25.866Z,2.79
2023-01-28T15:14:28.000Z,2.60
2023-01-28T15:19:28.173Z,2.56
2023-01-28T15:24:26.575Z,2.60
2023-01-28T15:29:27.167Z,2.50
2023-01-28T15:34:30.184Z,2.57
2023-01-28T15:39:29.126Z,2.51
2023-01-28T15:44:31.213Z,2.63
2023-01-28T15:49:31.571Z,2.53
2023-01-28T15:54:30.457Z,2.45
2023-01-28T15:59:31.317Z,2.59
2023-01-28T16:04:30.185Z,2.58
2023-01-28T16:09:29.499Z,2.63
2023-01-28T16:14:28.610Z,2.52
2023-01-28T16:19:34.006Z,2.56
2023-01-28T16:24:33.067Z,2.57
2023-01-28T16:29:32.260Z,2.67
2023-01-28T16:34:31.644Z,2.69
2023-01-28T16:39:30.072Z,2.63
2023-01-28T16:44:28.034Z,2.53
2023-01-28T16:49:26.089Z,2.64
2023-01-28T16:54:25.619Z,2.65
2023-01-28T16:59:23.620Z,2.58
2023-01-28T17:04:21.540Z,2.58
2023-01-28T17:09:19.554Z,2.60
2023-01-28T17:14:18.837Z,2.48
2023-01-28T17:19:17.594Z,2.57
2023-01-28T17:24:15.480Z,2.56
2023-01-28T17:29:13.431Z,2.39
2023-01-28T17:34:12.755Z,2.57
2023-01-28T17:39:10.813Z,2.46
2023-01-28T17:44:08.765Z,2.49
2023-01-28T17:49:06.705Z,2.46
2023-01-28T17:54:06.166Z,2.68
2023-01-28T17:59:06.911Z,2.56
2023-01-28T18:04:05.469Z,2.39
2023-01-28T18:09:03.451Z,2.52
2023-01-28T18:14:02.782Z,2.63
2023-01-28T18:19:00.702Z,2.51
2023-01-28T18:23:58.609Z,2.58
2023-01-28T18:28:58.885Z,2.59
2023-01-28T18:33:59.620Z,2.72
2023-01-28T18:38:58.262Z,2.73
2023-01-28T18:43:56.325Z,2.61
2023-01-28T18:48:54.327Z,2.53
2023-01-28T18:53:55.530Z,2.56
2023-01-28T18:58:56.881Z,2.56
2023-01-28T19:03:55.407Z,2.66
2023-01-28T19:08:55.139Z,2.59
2023-01-28T19:13:53.082Z,2.63
2023-01-28T19:18:54.557Z,2.66
2023-01-28T19:23:57.066Z,2.73
2023-01-28T19:28:56.683Z,2.65
2023-01-28T19:33:55.767Z,2.69
2023-01-28T19:38:55.204Z,2.67
2023-01-28T19:43:54.868Z,2.70
2023-01-28T19:48:52.879Z,2.59
2023-01-28T19:53:51.544Z,2.75
2023-01-28T19:58:49.562Z,2.65
2023-01-28T20:03:50.898Z,2.75
2023-01-28T20:08:55.154Z,2.77
2023-01-28T20:13:55.617Z,2.62
2023-01-28T20:18:57.935Z,2.63
2023-01-28T20:24:00.302Z,2.57
2023-01-28T20:29:00.835Z,2.55
2023-01-28T20:34:01.893Z,2.60
2023-01-28T20:39:01.883Z,2.51
2023-01-28T20:44:01.584Z,2.57
2023-01-28T20:49:03.055Z,2.38
2023-01-28T20:54:02.292Z,2.49
2023-01-28T20:59:01.366Z,2.49
2023-01-28T21:03:59.979Z,2.52
2023-01-28T21:08:59.443Z,2.65
2023-01-28T21:13:58.841Z,2.44
2023-01-28T21:18:57.032Z,2.49
2023-01-28T21:23:57.955Z,2.34
2023-01-28T21:28:57.418Z,2.44
2023-01-28T21:33:56.101Z,2.44
2023-01-28T21:38:54.695Z,2.42
2023-01-28T21:43:53.867Z,2.42
2023-01-28T21:48:56.865Z,2.36
2023-01-28T21:53:54.919Z,2.50
2023-01-28T21:59:09.812Z,2.59
2023-01-28T22:04:09.101Z,2.62
2023-01-28T22:09:11.752Z,2.66
2023-01-28T22:14:09.740Z,2.61
2023-01-28T22:19:09.344Z,2.56
2023-01-28T22:24:07.827Z,2.58
2023-01-28T22:29:06.391Z,2.48
2023-01-28T22:34:04.838Z,2.61
2023-01-28T22:39:05.582Z,2.56
2023-01-28T22:44:04.402Z,2.58
2023-01-28T22:49:03.295Z,2.51
2023-01-28T22:54:01.323Z,2.54
2023-01-28T22:59:01.383Z,2.59
2023-01-28T23:03:59.397Z,2.60
2023-01-28T23:08:57.364Z,2.66
2023-01-28T23:14:13.928Z,2.64
2023-01-28T23:19:31.207Z,2.60
2023-01-28T23:24:29.647Z,2.59
2023-01-28T23:29:28.348Z,2.59
2023-01-28T23:34:29.737Z,2.66
2023-01-28T23:39:27.661Z,2.67
2023-01-28T23:44:25.998Z,2.71
2023-01-28T23:49:23.982Z,2.71
2023-01-28T23:54:23.378Z,2.76
2023-01-28T23:59:21.514Z,2.81
